Time;durP1;ratioP1;P1;durP2;ratioP2;P2;SDS_P1;SDS_P2;PMS_P1;PMS_P2;Temp;Humidity;BMP_temperature;BMP_pressure;BME280_temperature;BME280_humidity;BME280_pressure;Samples;Min_cycle;Max_cycle;Signal;HPM_P1;HPM_P2
2022/01/31 00:02:16;;;;;;;193.52;89.38;;;0.90;99.90;;;;;;5036139;28;20099;-73
2022/01/31 00:04:45;;;;;;;229.68;109.55;;;0.80;99.90;;;;;;5035377;28;20132;-74
2022/01/31 00:07:12;;;;;;;202.85;95.97;;;0.80;99.90;;;;;;5035103;28;20041;-74
2022/01/31 00:09:42;;;;;;;187.20;88.85;;;0.80;99.90;;;;;;5035273;28;20045;-74
2022/01/31 00:12:13;;;;;;;183.38;89.25;;;0.70;99.90;;;;;;5055528;28;20492;-74
2022/01/31 00:14:43;;;;;;;186.75;86.03;;;0.70;99.90;;;;;;5054825;28;20053;-73
2022/01/31 00:17:12;;;;;;;193.82;93.72;;;0.70;1.00;;;;;;5054350;28;20045;-72
2022/01/31 00:19:40;;;;;;;210.38;94.85;;;0.70;1.00;;;;;;5053866;28;20043;-74
2022/01/31 00:22:12;;;;;;;240.80;109.70;;;0.70;1.00;;;;;;5034967;28;20045;-74
2022/01/31 00:24:40;;;;;;;241.90;106.05;;;0.80;1.00;;;;;;5035056;28;20050;-74
2022/01/31 00:27:09;;;;;;;227.98;105.53;;;0.70;1.00;;;;;;5033227;28;20057;-73
2022/01/31 00:29:37;;;;;;;218.70;98.75;;;0.60;1.00;;;;;;5033718;28;20045;-72
2022/01/31 00:32:05;;;;;;;200.85;92.47;;;0.60;1.00;;;;;;5036356;28;20041;-73
2022/01/31 00:34:33;;;;;;;214.07;101.32;;;0.60;1.00;;;;;;5057979;28;20046;-75
2022/01/31 00:37:04;;;;;;;208.25;96.32;;;0.60;1.00;;;;;;5076260;28;20045;-74
2022/01/31 00:39:35;;;;;;;197.93;89.00;;;0.60;99.90;;;;;;5062871;28;20525;-74
2022/01/31 00:42:05;;;;;;;183.15;86.53;;;0.50;99.90;;;;;;5048963;28;20049;-74
2022/01/31 00:44:46;;;;;;;188.38;85.88;;;0.50;99.90;;;;;;5033501;28;20498;-73
2022/01/31 00:47:19;;;;;;;167.77;77.40;;;0.50;99.90;;;;;;5034595;28;20042;-73
2022/01/31 00:49:52;;;;;;;158.15;73.05;;;0.50;99.90;;;;;;5034762;28;20116;-73
2022/01/31 00:52:20;;;;;;;168.40;77.20;;;0.60;99.90;;;;;;5033455;28;20447;-73
2022/01/31 00:54:49;;;;;;;162.30;78.38;;;0.50;99.90;;;;;;5032990;28;20053;-74
2022/01/31 00:57:16;;;;;;;142.50;66.03;;;0.50;99.90;;;;;;5029522;28;20074;-74
2022/01/31 00:59:44;;;;;;;135.57;62.55;;;0.40;99.90;;;;;;5013592;28;20054;-74
2022/01/31 01:02:11;;;;;;;136.50;61.58;;;0.40;99.90;;;;;;5013781;28;20542;-74
2022/01/31 01:04:40;;;;;;;132.73;60.22;;;0.40;99.90;;;;;;5018986;28;20041;-74
2022/01/31 01:07:07;;;;;;;137.57;61.20;;;0.40;99.90;;;;;;5032577;28;20152;-73
2022/01/31 01:09:35;;;;;;;129.63;62.70;;;0.30;99.90;;;;;;5033176;28;20069;-74
2022/01/31 01:12:04;;;;;;;129.07;60.67;;;0.30;99.90;;;;;;5033365;28;20087;-73
2022/01/31 01:14:32;;;;;;;138.07;63.45;;;0.30;99.90;;;;;;5033069;28;20077;-73
2022/01/31 01:16:59;;;;;;;153.35;71.18;;;0.30;99.90;;;;;;5034362;28;20041;-74
2022/01/31 01:19:27;;;;;;;206.80;91.70;;;0.30;99.90;;;;;;5042015;28;20117;-73
2022/01/31 01:21:54;;;;;;;203.27;91.53;;;0.20;99.90;;;;;;5046881;28;20062;-73
2022/01/31 01:24:22;;;;;;;351.77;167.43;;;0.10;99.90;;;;;;5045004;28;20072;-74
2022/01/31 01:26:49;;;;;;;295.85;134.88;;;0.10;99.90;;;;;;5040957;28;20045;-74
2022/01/31 01:29:20;;;;;;;307.25;144.57;;;0.00;99.90;;;;;;5045260;28;20049;-74
2022/01/31 01:31:49;;;;;;;309.65;142.90;;;0.00;99.90;;;;;;5059464;28;20049;-73
2022/01/31 01:34:20;;;;;;;361.88;178.30;;;-0.10;99.90;;;;;;5057256;28;20509;-75
2022/01/31 01:36:50;;;;;;;358.38;169.98;;;-0.20;99.90;;;;;;5069606;28;20056;-73
2022/01/31 01:39:18;;;;;;;233.15;110.20;;;-0.30;99.90;;;;;;5060019;28;20060;-73
2022/01/31 01:41:47;;;;;;;225.60;110.47;;;-0.30;99.90;;;;;;5055933;28;20163;-73
2022/01/31 01:44:15;;;;;;;231.13;112.93;;;-0.30;99.90;;;;;;5050136;28;20055;-74
2022/01/31 01:46:43;;;;;;;236.45;111.55;;;-0.30;99.90;;;;;;5032674;28;20045;-73
2022/01/31 01:49:11;;;;;;;206.15;97.65;;;-0.40;99.90;;;;;;5034067;28;20459;-74
2022/01/31 01:51:39;;;;;;;164.63;77.85;;;-0.50;99.90;;;;;;5032614;28;20045;-74
2022/01/31 01:54:07;;;;;;;189.90;91.20;;;-0.50;99.90;;;;;;5032491;28;20050;-74
2022/01/31 01:56:35;;;;;;;143.65;68.63;;;-0.50;99.90;;;;;;5050972;28;20053;-74
2022/01/31 01:59:05;;;;;;;152.45;70.55;;;-0.60;99.90;;;;;;5054900;28;20404;-74
2022/01/31 02:01:38;;;;;;;195.13;90.10;;;-0.60;99.90;;;;;;5048889;28;20049;-74
2022/01/31 02:04:07;;;;;;;130.68;62.70;;;-0.60;99.90;;;;;;5034879;28;20053;-74
2022/01/31 02:06:41;;;;;;;129.10;60.40;;;-0.60;99.90;;;;;;5038715;28;20060;-74
2022/01/31 02:09:09;;;;;;;117.63;55.92;;;-0.60;99.90;;;;;;5038616;28;20069;-74
2022/01/31 02:11:37;;;;;;;103.75;51.65;;;-0.60;99.90;;;;;;5037754;28;20082;-74
2022/01/31 02:14:05;;;;;;;100.13;47.42;;;-0.70;99.90;;;;;;5036113;28;20045;-74
2022/01/31 02:17:08;;;;;;;103.47;53.50;;;-0.60;99.90;;;;;;5005139;28;20503;-73
2022/01/31 02:19:49;;;;;;;91.70;45.25;;;-0.60;99.90;;;;;;5016306;28;20092;-73
2022/01/31 02:22:18;;;;;;;87.50;45.28;;;-0.70;99.90;;;;;;5017575;28;20124;-73
2022/01/31 02:25:01;;;;;;;87.32;43.47;;;-0.80;99.90;;;;;;5016910;28;20061;-73
2022/01/31 02:27:36;;;;;;;85.93;42.85;;;-0.80;99.90;;;;;;5016736;28;20042;-74
2022/01/31 02:30:09;;;;;;;89.72;46.67;;;-0.90;99.90;;;;;;5026846;28;20052;-74
2022/01/31 02:32:42;;;;;;;126.88;64.47;;;-0.90;99.90;;;;;;5057276;28;20053;-74
2022/01/31 02:35:11;;;;;;;130.80;66.57;;;-0.90;99.90;;;;;;5056015;28;20458;-73
2022/01/31 02:37:40;;;;;;;95.10;48.88;;;-1.00;99.90;;;;;;5056948;28;20037;-74
2022/01/31 02:40:28;;;;;;;102.93;52.47;;;-1.10;99.90;;;;;;5059293;28;20569;-74
2022/01/31 02:42:58;;;;;;;129.98;68.60;;;-1.00;99.90;;;;;;5057520;28;20108;-74
2022/01/31 02:45:30;;;;;;;133.38;67.60;;;-0.90;99.90;;;;;;5057452;28;20460;-74
2022/01/31 02:48:00;;;;;;;144.48;71.68;;;-1.10;99.90;;;;;;5056668;28;20041;-72
2022/01/31 02:50:32;;;;;;;112.63;57.78;;;-1.20;99.90;;;;;;5055053;28;20063;-74
2022/01/31 02:53:12;;;;;;;94.15;50.15;;;-1.20;1.00;;;;;;5055387;28;20064;-72
2022/01/31 02:55:42;;;;;;;84.68;43.15;;;-1.20;1.00;;;;;;5041252;28;20494;-74
2022/01/31 02:58:10;;;;;;;87.63;42.45;;;-1.10;1.00;;;;;;5041176;28;20048;-74
2022/01/31 03:00:38;;;;;;;85.78;46.88;;;-1.10;99.90;;;;;;5046513;28;20041;-73
2022/01/31 03:03:16;;;;;;;88.57;46.35;;;-1.10;99.90;;;;;;5050594;28;20052;-74
2022/01/31 03:05:44;;;;;;;85.60;45.10;;;-1.20;99.90;;;;;;5047857;28;20053;-74
2022/01/31 03:08:14;;;;;;;89.13;47.17;;;-1.20;99.90;;;;;;5044146;28;20049;-72
2022/01/31 03:10:42;;;;;;;99.20;50.60;;;-1.10;99.90;;;;;;5026039;28;20050;-72
2022/01/31 03:13:12;;;;;;;85.15;42.17;;;-1.20;99.90;;;;;;5021328;28;20042;-72
2022/01/31 03:15:52;;;;;;;93.93;44.53;;;-1.20;99.90;;;;;;5021362;28;20045;-73
2022/01/31 03:18:38;;;;;;;91.38;43.58;;;-1.30;99.90;;;;;;5018235;28;20049;-73
2022/01/31 03:21:06;;;;;;;77.90;38.83;;;-1.40;1.00;;;;;;5037055;28;20489;-73
2022/01/31 03:23:35;;;;;;;69.65;34.97;;;-1.30;1.00;;;;;;5037246;28;20049;-73
2022/01/31 03:26:03;;;;;;;71.05;34.05;;;-1.40;1.00;;;;;;5055640;28;20053;-74
2022/01/31 03:28:30;;;;;;;69.10;33.33;;;-1.40;1.00;;;;;;5051960;28;20058;-74
2022/01/31 03:31:01;;;;;;;62.95;29.35;;;-1.50;1.00;;;;;;5035154;28;20069;-74
2022/01/31 03:33:28;;;;;;;76.18;34.03;;;-1.40;1.00;;;;;;5036025;28;20060;-74
2022/01/31 03:35:56;;;;;;;69.93;33.63;;;-1.40;1.00;;;;;;5034868;28;20046;-73
2022/01/31 03:38:23;;;;;;;72.85;32.63;;;-1.40;1.00;;;;;;5036101;28;20626;-72
2022/01/31 03:40:52;;;;;;;78.85;33.30;;;-1.40;1.00;;;;;;5023842;28;20479;-74
2022/01/31 03:43:20;;;;;;;64.47;29.42;;;-1.40;1.00;;;;;;5025615;28;20532;-74
2022/01/31 03:45:48;;;;;;;69.03;30.83;;;-1.30;1.00;;;;;;5043488;28;20053;-73
2022/01/31 03:48:21;;;;;;;69.78;30.17;;;-1.40;1.00;;;;;;5062784;28;20043;-72
2022/01/31 03:50:49;;;;;;;76.78;34.85;;;-1.40;1.00;;;;;;5068160;28;20045;-73
2022/01/31 03:53:18;;;;;;;76.30;34.08;;;-1.40;1.00;;;;;;5064206;28;20053;-74
2022/01/31 03:55:46;;;;;;;66.93;29.88;;;-1.50;1.00;;;;;;5065077;28;20048;-73
2022/01/31 03:58:15;;;;;;;64.70;28.75;;;-1.60;1.00;;;;;;5060965;28;20044;-73
2022/01/31 04:00:59;;;;;;;83.03;40.80;;;-1.70;1.00;;;;;;5049040;28;20046;-73
2022/01/31 04:03:26;;;;;;;79.47;40.00;;;-1.70;1.00;;;;;;5046650;28;20054;-73
2022/01/31 04:05:54;;;;;;;91.03;45.90;;;-1.70;1.00;;;;;;5048792;28;20080;-73
2022/01/31 04:08:21;;;;;;;92.75;45.88;;;-1.60;1.00;;;;;;5048156;28;20072;-73
2022/01/31 04:10:49;;;;;;;96.88;45.70;;;-1.50;1.00;;;;;;5048107;28;20061;-73
2022/01/31 04:13:18;;;;;;;101.90;47.97;;;-1.50;1.00;;;;;;5035605;28;20132;-73
2022/01/31 04:15:46;;;;;;;99.07;50.35;;;-1.60;1.00;;;;;;5035229;28;20077;-73
2022/01/31 04:18:15;;;;;;;94.20;48.05;;;-1.50;1.00;;;;;;5034939;28;20402;-74
2022/01/31 04:20:42;;;;;;;86.63;43.80;;;-1.50;1.00;;;;;;5034937;28;20512;-74
2022/01/31 04:23:12;;;;;;;83.20;40.25;;;-1.50;1.00;;;;;;5048100;28;20049;-74
2022/01/31 04:25:46;;;;;;;75.78;36.80;;;-1.60;1.00;;;;;;5054895;28;20046;-74
2022/01/31 04:28:21;;;;;;;77.63;38.72;;;-1.60;1.00;;;;;;5078728;23;20052;-79
2022/01/31 04:30:56;;;;;;;88.57;44.67;;;-1.50;1.00;;;;;;5053812;28;20055;-80
2022/01/31 04:33:24;;;;;;;75.78;39.70;;;-1.50;1.00;;;;;;5058060;28;20095;-80
2022/01/31 04:35:52;;;;;;;80.20;39.40;;;-1.60;1.00;;;;;;5059490;28;20044;-79
2022/01/31 04:38:20;;;;;;;69.07;34.72;;;-1.60;1.00;;;;;;5060700;28;20045;-80
2022/01/31 04:40:48;;;;;;;73.30;35.33;;;-1.60;1.00;;;;;;5062599;28;20484;-78
2022/01/31 04:43:16;;;;;;;79.43;39.85;;;-1.60;1.00;;;;;;5062399;28;20049;-79
2022/01/31 04:45:48;;;;;;;81.47;38.78;;;-1.60;1.00;;;;;;5061512;28;20071;-79
2022/01/31 04:48:21;;;;;;;75.68;37.63;;;-1.70;1.00;;;;;;5057497;28;20413;-79
2022/01/31 04:50:49;;;;;;;81.22;40.38;;;-1.60;1.00;;;;;;5056881;28;20053;-79
2022/01/31 04:53:17;;;;;;;87.65;42.13;;;-1.70;1.00;;;;;;5057755;28;20049;-79
2022/01/31 04:55:44;;;;;;;106.18;51.42;;;-1.70;1.00;;;;;;5057765;28;20053;-78
2022/01/31 04:58:12;;;;;;;84.10;43.63;;;-1.70;1.00;;;;;;5038735;28;20449;-79
2022/01/31 05:00:40;;;;;;;76.28;37.60;;;-1.70;1.00;;;;;;5037399;28;20045;-80
2022/01/31 05:03:12;;;;;;;81.22;39.80;;;-1.70;1.00;;;;;;5037248;28;20458;-78
2022/01/31 05:05:42;;;;;;;90.82;44.55;;;-1.60;1.00;;;;;;5037174;28;20050;-80
2022/01/31 05:08:10;;;;;;;89.13;46.78;;;-1.50;1.00;;;;;;5037297;28;20048;-79
2022/01/31 05:10:43;;;;;;;73.78;37.75;;;-1.50;1.00;;;;;;5036992;28;20049;-77
2022/01/31 05:13:11;;;;;;;91.70;48.03;;;-1.60;1.00;;;;;;5056805;28;20049;-78
2022/01/31 05:15:39;;;;;;;86.05;44.50;;;-1.50;1.00;;;;;;5057113;28;20057;-78
2022/01/31 05:18:07;;;;;;;81.72;41.53;;;-1.50;1.00;;;;;;5057143;28;20052;-78
2022/01/31 05:20:36;;;;;;;93.47;46.35;;;-1.50;1.00;;;;;;5057447;28;20071;-79
2022/01/31 05:23:06;;;;;;;96.70;48.15;;;-1.50;1.00;;;;;;5039403;28;20103;-79
2022/01/31 05:25:34;;;;;;;82.38;39.20;;;-1.60;1.00;;;;;;5036884;28;20068;-79
2022/01/31 05:28:02;;;;;;;88.75;41.00;;;-1.50;1.00;;;;;;5036477;28;20057;-77
2022/01/31 05:30:29;;;;;;;83.97;42.13;;;-1.60;1.00;;;;;;5036401;28;20056;-80
2022/01/31 05:33:02;;;;;;;85.53;44.28;;;-1.50;1.00;;;;;;5036188;28;20053;-79
2022/01/31 05:35:29;;;;;;;84.10;42.90;;;-1.60;1.00;;;;;;5037740;28;20088;-78
2022/01/31 05:37:57;;;;;;;99.38;49.13;;;-1.60;1.00;;;;;;5056218;28;20049;-79
2022/01/31 05:40:28;;;;;;;136.60;66.25;;;-1.60;1.00;;;;;;5063569;28;20037;-78
2022/01/31 05:42:55;;;;;;;205.95;95.63;;;-1.60;1.00;;;;;;5073860;28;20113;-78
2022/01/31 05:45:23;;;;;;;171.48;85.95;;;-1.60;1.00;;;;;;5070752;28;20045;-79
2022/01/31 05:47:51;;;;;;;173.57;85.32;;;-1.60;1.00;;;;;;5042052;28;20053;-77
2022/01/31 05:50:19;;;;;;;217.80;100.85;;;-1.70;1.00;;;;;;5040020;28;20053;-80
2022/01/31 05:52:47;;;;;;;281.83;123.55;;;-1.80;1.00;;;;;;5040725;28;20128;-79
2022/01/31 05:55:15;;;;;;;242.20;103.85;;;-1.70;1.00;;;;;;5041486;28;20054;-78
2022/01/31 05:57:44;;;;;;;193.68;86.20;;;-1.70;1.00;;;;;;5040916;28;20088;-79
2022/01/31 06:00:13;;;;;;;163.35;74.72;;;-1.70;1.00;;;;;;5041063;28;20053;-79
2022/01/31 06:02:42;;;;;;;152.02;71.28;;;-1.60;1.00;;;;;;5039133;28;20107;-80
2022/01/31 06:05:11;;;;;;;162.90;79.28;;;-1.60;1.00;;;;;;5023908;28;20068;-78
2022/01/31 06:07:40;;;;;;;159.75;76.63;;;-1.60;1.00;;;;;;5024261;28;20045;-79
2022/01/31 06:10:08;;;;;;;177.40;86.07;;;-1.50;1.00;;;;;;5042379;28;20049;-80
2022/01/31 06:12:40;;;;;;;241.15;101.00;;;-1.50;1.00;;;;;;5044636;28;20044;-78
2022/01/31 06:15:10;;;;;;;246.63;104.68;;;-1.50;1.00;;;;;;5049312;28;20075;-77
2022/01/31 06:17:39;;;;;;;240.95;104.80;;;-1.50;1.00;;;;;;5067897;28;20055;-77
2022/01/31 06:20:10;;;;;;;258.13;110.22;;;-1.50;1.00;;;;;;5054418;28;20049;-76
2022/01/31 06:22:47;;;;;;;247.90;107.15;;;-1.50;1.00;;;;;;5034753;28;20075;-77
2022/01/31 06:25:15;;;;;;;236.18;106.38;;;-1.50;1.00;;;;;;5033616;28;20156;-76
2022/01/31 06:27:44;;;;;;;466.45;169.07;;;-1.50;1.00;;;;;;5035198;28;20049;-77
2022/01/31 06:30:13;;;;;;;273.70;112.20;;;-1.40;1.00;;;;;;5033596;28;20121;-77
2022/01/31 06:32:46;;;;;;;227.55;93.50;;;-1.40;1.00;;;;;;5050611;28;20052;-76
2022/01/31 06:35:14;;;;;;;293.15;124.82;;;-1.40;1.00;;;;;;5050599;28;20054;-77
2022/01/31 06:37:41;;;;;;;270.92;125.53;;;-1.30;1.00;;;;;;5034128;28;20048;-79
2022/01/31 06:40:10;;;;;;;296.88;134.20;;;-1.20;1.00;;;;;;5049946;28;20054;-76
2022/01/31 06:42:38;;;;;;;320.65;151.27;;;-1.20;1.00;;;;;;5043573;28;20080;-77
2022/01/31 06:45:07;;;;;;;298.45;143.90;;;-1.10;1.00;;;;;;5053164;28;20060;-79
2022/01/31 06:47:37;;;;;;;300.55;142.52;;;-1.10;1.00;;;;;;5037194;28;20493;-78
2022/01/31 06:50:07;;;;;;;578.30;267.73;;;-1.00;1.00;;;;;;5050393;28;20444;-77
2022/01/31 06:52:36;;;;;;;561.80;264.67;;;-0.90;1.00;;;;;;5048144;28;20052;-79
2022/01/31 06:55:06;;;;;;;385.55;177.63;;;-0.90;1.00;;;;;;5031844;28;20086;-79
2022/01/31 06:57:36;;;;;;;315.20;142.45;;;-0.90;1.00;;;;;;5057018;28;20124;-79
2022/01/31 07:00:06;;;;;;;290.55;134.10;;;-0.90;1.00;;;;;;5045360;28;20053;-78
2022/01/31 07:02:34;;;;;;;276.20;130.65;;;-0.90;1.00;;;;;;5062979;28;20053;-80
2022/01/31 07:05:04;;;;;;;289.63;139.57;;;-0.90;1.00;;;;;;5045709;28;20053;-79
2022/01/31 07:07:32;;;;;;;326.13;154.23;;;-0.90;1.00;;;;;;5063322;28;20076;-79
2022/01/31 07:10:02;;;;;;;302.45;146.88;;;-0.90;1.00;;;;;;5043524;28;20555;-80
2022/01/31 07:12:32;;;;;;;279.08;132.10;;;-0.90;1.00;;;;;;5025351;28;20140;-80
2022/01/31 07:15:00;;;;;;;305.90;138.43;;;-0.80;1.00;;;;;;5029235;28;20064;-78
2022/01/31 07:17:30;;;;;;;267.42;122.93;;;-0.80;1.00;;;;;;5026126;28;20553;-79
2022/01/31 07:19:58;;;;;;;277.05;126.80;;;-0.70;1.00;;;;;;5040427;28;20065;-80
2022/01/31 07:22:34;;;;;;;247.18;114.40;;;-0.50;1.00;;;;;;5040548;28;20050;-81
2022/01/31 07:25:04;;;;;;;285.55;135.23;;;-0.40;99.90;;;;;;5046234;28;20092;-80
2022/01/31 07:27:32;;;;;;;248.68;114.80;;;-0.30;99.90;;;;;;5033017;28;20054;-79
2022/01/31 07:30:00;;;;;;;258.73;125.55;;;-0.20;99.90;;;;;;5049432;28;20041;-80
2022/01/31 07:32:29;;;;;;;242.68;111.97;;;-0.10;99.90;;;;;;5055985;28;20060;-80
2022/01/31 07:34:57;;;;;;;271.67;128.35;;;0.10;99.90;;;;;;5039392;28;20095;-79
2022/01/31 07:37:26;;;;;;;237.57;116.28;;;0.20;99.90;;;;;;5039281;28;20050;-79
2022/01/31 07:39:54;;;;;;;241.38;115.32;;;0.40;99.90;;;;;;5040336;28;20076;-81
2022/01/31 07:42:22;;;;;;;235.70;109.90;;;0.60;99.90;;;;;;5024045;28;20081;-82
2022/01/31 07:44:49;;;;;;;248.73;117.30;;;0.70;99.90;;;;;;5042603;28;20049;-80
2022/01/31 07:47:16;;;;;;;245.10;118.07;;;0.80;99.90;;;;;;5053314;28;20045;-80
2022/01/31 07:49:45;;;;;;;253.77;120.13;;;0.90;99.90;;;;;;5026754;28;20057;-77
2022/01/31 07:52:13;;;;;;;242.05;117.65;;;1.00;99.90;;;;;;5020963;28;20058;-78
2022/01/31 07:54:43;;;;;;;234.73;115.60;;;1.10;99.90;;;;;;5043064;28;20204;-80
2022/01/31 07:57:11;;;;;;;227.25;113.28;;;1.10;99.90;;;;;;5047047;28;20086;-77
2022/01/31 07:59:39;;;;;;;223.20;112.53;;;1.00;99.90;;;;;;5049382;28;20469;-80
2022/01/31 08:02:07;;;;;;;200.02;101.03;;;0.90;99.90;;;;;;5038335;28;20103;-79
2022/01/31 08:04:35;;;;;;;257.40;129.15;;;0.80;99.90;;;;;;5037004;28;20524;-78
2022/01/31 08:07:03;;;;;;;287.25;142.88;;;0.80;99.90;;;;;;5018873;28;20594;-78
2022/01/31 08:09:31;;;;;;;253.45;127.80;;;0.80;99.90;;;;;;5019726;28;20588;-78
2022/01/31 08:12:00;;;;;;;269.40;132.60;;;0.80;99.90;;;;;;5038284;28;20047;-79
2022/01/31 08:14:29;;;;;;;261.98;127.38;;;0.90;99.90;;;;;;5036652;28;20041;-79
2022/01/31 08:16:57;;;;;;;225.35;112.15;;;1.00;99.90;;;;;;5038513;28;20120;-79
2022/01/31 08:19:26;;;;;;;221.80;112.18;;;1.20;99.90;;;;;;5037710;28;20061;-78
2022/01/31 08:21:55;;;;;;;259.45;123.63;;;1.40;99.90;;;;;;5037106;28;20068;-79
2022/01/31 08:24:22;;;;;;;258.85;123.80;;;1.50;99.90;;;;;;5037003;28;20458;-81
2022/01/31 08:26:50;;;;;;;231.85;116.60;;;1.70;99.90;;;;;;5019177;28;20049;-80
2022/01/31 08:29:23;;;;;;;220.95;114.18;;;1.80;99.90;;;;;;5035103;28;20429;-78
2022/01/31 08:31:53;;;;;;;229.13;117.32;;;2.00;99.90;;;;;;5036358;28;20041;-79
2022/01/31 08:35:47;;;;;;;237.38;121.55;;;2.10;99.90;;;;;;5020966;28;20054;-80
2022/01/31 08:37:13;;;;;;;266.80;132.75;;;2.20;99.90;;;;;;5023012;28;20046;-80
2022/01/31 08:39:40;;;;;;;257.65;129.27;;;2.20;98.20;;;;;;5015456;28;20072;-80
2022/01/31 08:42:09;;;;;;;221.75;111.63;;;2.20;94.00;;;;;;5047157;28;20037;-82
2022/01/31 08:44:38;;;;;;;228.82;117.25;;;2.30;86.90;;;;;;5039867;28;20046;-79
2022/01/31 08:47:08;;;;;;;247.23;127.97;;;2.60;73.80;;;;;;5038026;28;20049;-82
2022/01/31 08:49:37;;;;;;;228.57;123.50;;;2.70;55.90;;;;;;5025537;28;20128;-79
2022/01/31 08:52:05;;;;;;;229.90;121.60;;;2.90;65.00;;;;;;5036340;28;20117;-80
2022/01/31 08:54:36;;;;;;;221.57;124.22;;;3.10;46.30;;;;;;5019230;28;20560;-81
2022/01/31 08:57:04;;;;;;;218.52;121.68;;;3.40;45.30;;;;;;5018736;28;20049;-80
2022/01/31 08:59:32;;;;;;;176.55;101.05;;;3.70;21.40;;;;;;5019686;28;20042;-81
2022/01/31 09:02:12;;;;;;;186.57;99.13;;;4.00;1.00;;;;;;5019009;28;20052;-80
2022/01/31 09:04:47;;;;;;;170.25;93.53;;;4.40;1.00;;;;;;5036084;28;20049;-82
2022/01/31 09:07:16;;;;;;;147.67;79.40;;;4.80;1.00;;;;;;5034912;28;20041;-80
2022/01/31 09:09:43;;;;;;;162.77;88.03;;;5.10;1.00;;;;;;5015790;28;20453;-80
2022/01/31 09:12:15;;;;;;;150.50;81.55;;;5.30;1.00;;;;;;5003272;28;20478;-82
2022/01/31 09:14:43;;;;;;;149.48;80.72;;;5.50;1.00;;;;;;5038285;28;20083;-79
2022/01/31 09:17:12;;;;;;;131.95;73.80;;;5.70;1.00;;;;;;5038460;28;20044;-80
2022/01/31 09:19:39;;;;;;;141.77;80.10;;;5.90;1.00;;;;;;5021539;28;20151;-80
2022/01/31 09:22:07;;;;;;;134.27;74.72;;;6.00;1.00;;;;;;5040555;28;20041;-81
2022/01/31 09:24:38;;;;;;;149.23;79.53;;;6.10;1.00;;;;;;5024504;28;20160;-79
2022/01/31 09:27:06;;;;;;;143.65;77.90;;;6.20;99.90;;;;;;5040567;28;20045;-79
2022/01/31 09:29:34;;;;;;;152.07;78.53;;;6.30;1.00;;;;;;5041950;28;20112;-79
2022/01/31 09:32:03;;;;;;;122.22;65.75;;;6.30;1.00;;;;;;5042621;28;20125;-80
2022/01/31 09:34:32;;;;;;;109.22;57.15;;;6.40;1.00;;;;;;5043658;28;20050;-81
2022/01/31 09:37:00;;;;;;;106.15;56.28;;;6.60;1.00;;;;;;5041206;28;20137;-81
2022/01/31 09:39:28;;;;;;;109.95;60.88;;;6.70;1.00;;;;;;5042121;28;20053;-79
2022/01/31 09:41:57;;;;;;;95.88;51.35;;;6.90;1.00;;;;;;5022864;28;20493;-81
2022/01/31 09:44:39;;;;;;;128.18;57.83;;;7.10;1.00;;;;;;5041989;28;20088;-82
2022/01/31 09:47:19;;;;;;;79.57;40.65;;;7.40;1.00;;;;;;5029201;28;20128;-81
2022/01/31 09:49:48;;;;;;;80.07;39.70;;;7.80;1.00;;;;;;5040745;28;20045;-81
2022/01/31 09:52:16;;;;;;;78.22;39.65;;;8.10;1.00;;;;;;5027287;28;20136;-79
2022/01/31 09:54:48;;;;;;;67.28;32.97;;;8.40;1.00;;;;;;5029640;28;20061;-81
2022/01/31 09:57:16;;;;;;;54.25;28.35;;;8.60;1.00;;;;;;5041365;28;20052;-79
2022/01/31 09:59:44;;;;;;;50.35;23.00;;;8.70;1.00;;;;;;5046293;28;20041;-82
2022/01/31 10:02:14;;;;;;;40.45;21.83;;;8.80;1.00;;;;;;5036578;28;20396;-80
2022/01/31 10:04:45;;;;;;;45.90;20.48;;;8.80;1.00;;;;;;5046413;28;20045;-82
2022/01/31 10:07:14;;;;;;;42.58;19.05;;;8.60;1.00;;;;;;5048082;28;20067;-79
2022/01/31 10:09:46;;;;;;;38.55;18.50;;;8.50;1.00;;;;;;5047805;28;20041;-80
2022/01/31 10:12:25;;;;;;;33.95;15.80;;;8.60;1.00;;;;;;5045148;28;20124;-82
2022/01/31 10:17:40;;;;;;;39.75;18.00;;;8.80;1.00;;;;;;5022270;28;20124;-82
2022/01/31 10:20:09;;;;;;;40.30;17.33;;;9.00;1.00;;;;;;5004878;28;20046;-82
2022/01/31 10:22:41;;;;;;;53.97;21.75;;;9.30;99.90;;;;;;5023153;28;20583;-81
2022/01/31 10:25:11;;;;;;;36.28;15.73;;;9.40;1.00;;;;;;5032636;28;20026;-81
2022/01/31 10:27:39;;;;;;;40.05;16.67;;;9.20;1.00;;;;;;5049028;23;20059;-78
2022/01/31 10:30:10;;;;;;;37.70;17.55;;;9.30;1.00;;;;;;5048423;28;20037;-78
2022/01/31 10:32:39;;;;;;;58.28;22.63;;;9.30;1.00;;;;;;5044323;28;20059;-80
2022/01/31 10:35:09;;;;;;;43.92;17.92;;;9.50;1.00;;;;;;5060858;28;20559;-79
2022/01/31 10:37:40;;;;;;;36.00;15.27;;;9.70;1.00;;;;;;5038142;28;20050;-77
2022/01/31 10:46:06;;;;;;;26.55;11.95;;;9.70;1.00;;;;;;4980405;28;20507;-78
2022/01/31 10:54:29;;;;;;;39.55;14.90;;;9.80;1.00;;;;;;4979293;28;20038;-77
2022/01/31 10:56:58;;;;;;;36.72;18.15;;;9.90;1.00;;;;;;4978854;28;20113;-78
2022/01/31 10:59:28;;;;;;;44.55;17.73;;;9.90;1.00;;;;;;4978827;28;20050;-77
2022/01/31 11:01:56;;;;;;;26.88;12.20;;;10.10;1.00;;;;;;4995177;28;20076;-77
2022/01/31 11:04:24;;;;;;;21.98;10.20;;;10.00;1.00;;;;;;4979400;28;20054;-77
2022/01/31 11:06:59;;;;;;;23.23;10.73;;;10.10;1.00;;;;;;4995114;28;20222;-77
2022/01/31 11:09:31;;;;;;;29.02;11.98;;;10.20;1.00;;;;;;4979114;28;20038;-77
2022/01/31 11:11:59;;;;;;;32.70;13.48;;;10.30;7.40;;;;;;4979807;28;20047;-78
2022/01/31 11:14:27;;;;;;;42.67;16.13;;;10.30;1.00;;;;;;4995070;28;20142;-79
2022/01/31 11:16:56;;;;;;;49.92;19.33;;;10.00;1.00;;;;;;4999945;28;20060;-79
2022/01/31 11:19:31;;;;;;;58.60;20.48;;;9.90;1.00;;;;;;5044893;28;20057;-76
2022/01/31 11:22:02;;;;;;;69.43;23.80;;;9.90;1.00;;;;;;5037684;28;20049;-78
2022/01/31 11:24:38;;;;;;;64.70;21.38;;;10.00;1.00;;;;;;5036082;28;20073;-77
2022/01/31 11:27:10;;;;;;;39.00;15.48;;;10.10;1.00;;;;;;5019207;28;20067;-76
2022/01/31 11:29:41;;;;;;;29.02;13.38;;;10.30;1.00;;;;;;5036941;28;20042;-79
2022/01/31 11:32:10;;;;;;;29.35;13.07;;;10.40;1.00;;;;;;5038028;28;20061;-77
2022/01/31 11:34:40;;;;;;;25.63;10.70;;;10.40;1.00;;;;;;5038155;28;20061;-77
2022/01/31 11:37:09;;;;;;;21.00;9.63;;;10.10;1.00;;;;;;5037427;28;20045;-77
2022/01/31 11:39:39;;;;;;;19.08;8.05;;;10.00;1.00;;;;;;5019587;28;20049;-78
2022/01/31 11:42:07;;;;;;;21.40;9.98;;;9.80;1.00;;;;;;5018791;28;20045;-77
2022/01/31 11:44:42;;;;;;;27.30;10.77;;;9.80;1.00;;;;;;5036179;28;20061;-78
2022/01/31 11:47:10;;;;;;;22.70;9.65;;;10.00;1.00;;;;;;5019045;28;20052;-78
2022/01/31 11:49:46;;;;;;;23.65;10.30;;;10.10;1.00;;;;;;5037691;28;20132;-77
2022/01/31 11:52:14;;;;;;;27.73;11.63;;;10.20;1.00;;;;;;5021295;28;20053;-78
2022/01/31 11:54:49;;;;;;;37.55;14.73;;;10.30;1.00;;;;;;5022046;28;20069;-78
2022/01/31 11:57:19;;;;;;;22.00;11.13;;;10.40;1.00;;;;;;5038283;28;20042;-79
2022/01/31 11:59:51;;;;;;;20.65;10.27;;;10.40;1.00;;;;;;5019408;28;20466;-78
2022/01/31 12:02:21;;;;;;;24.80;11.60;;;10.40;1.00;;;;;;5019703;28;20049;-78
2022/01/31 12:04:50;;;;;;;26.98;13.68;;;10.40;1.00;;;;;;5018519;28;20056;-78
2022/01/31 12:07:41;;;;;;;35.63;15.07;;;10.20;1.00;;;;;;5037661;28;20052;-77
2022/01/31 12:10:18;;;;;;;39.63;15.80;;;9.90;1.00;;;;;;5019710;28;20042;-78
2022/01/31 12:12:50;;;;;;;37.10;15.23;;;9.90;49.50;;;;;;5037032;28;20124;-78
2022/01/31 12:16:01;;;;;;;39.97;17.33;;;10.00;99.90;;;;;;5018560;28;20072;-79
2022/01/31 12:19:16;;;;;;;56.70;28.85;;;10.20;99.90;;;;;;5018351;28;20418;-78
2022/01/31 12:22:04;;;;;;;33.70;17.40;;;10.30;1.00;;;;;;5035831;28;20045;-78
2022/01/31 12:24:35;;;;;;;33.78;15.23;;;10.30;1.00;;;;;;5035950;28;20042;-79
2022/01/31 12:27:11;;;;;;;36.70;16.63;;;10.40;1.00;;;;;;5018393;28;20094;-78
2022/01/31 12:29:42;;;;;;;41.05;19.60;;;10.50;1.00;;;;;;5018365;28;20045;-77
2022/01/31 12:32:18;;;;;;;41.78;17.98;;;10.40;1.00;;;;;;5024625;28;20057;-77
2022/01/31 12:34:58;;;;;;;39.90;20.10;;;10.40;1.00;;;;;;5031001;28;20049;-80
2022/01/31 12:37:33;;;;;;;46.67;20.38;;;10.50;99.90;;;;;;5039246;28;20037;-77
2022/01/31 12:40:11;;;;;;;41.53;19.98;;;10.40;93.40;;;;;;5042607;28;20545;-77
2022/01/31 12:46:18;;;;;;;37.72;17.65;;;10.40;1.00;;;;;;5018746;28;20050;-78
2022/01/31 12:49:10;;;;;;;26.77;13.52;;;10.50;1.00;;;;;;5035651;28;20536;-78
2022/01/31 12:52:01;;;;;;;76.68;25.95;;;10.60;1.00;;;;;;5018027;28;20080;-78
2022/01/31 12:54:29;;;;;;;73.28;27.40;;;10.50;1.00;;;;;;5019102;28;20073;-78
2022/01/31 12:57:04;;;;;;;62.75;24.92;;;10.50;1.00;;;;;;5036183;28;20121;-78
2022/01/31 12:59:34;;;;;;;71.77;26.63;;;10.40;1.00;;;;;;5036380;28;20037;-77
2022/01/31 13:02:05;;;;;;;46.40;21.05;;;10.50;1.00;;;;;;5036729;28;20589;-78
2022/01/31 13:04:32;;;;;;;36.85;18.85;;;10.40;1.00;;;;;;5034195;28;20120;-79